Time;durP1;ratioP1;P1;durP2;ratioP2;P2;SDS_P1;SDS_P2;PMS_P1;PMS_P2;Temp;Humidity;BMP_temperature;BMP_pressure;BME280_temperature;BME280_humidity;BME280_pressure;Samples;Min_cycle;Max_cycle;Signal;HPM_P1;HPM_P2
2023/05/01 00:00:28;;;;;;;1.92;1.00;;;14.90;99.90;;;;;;5041026;28;20025;-61
2023/05/01 00:02:56;;;;;;;1.60;0.90;;;15.00;99.90;;;;;;5040402;28;20022;-61
2023/05/01 00:05:23;;;;;;;1.45;0.80;;;15.20;99.90;;;;;;5038262;28;20053;-61
2023/05/01 00:07:51;;;;;;;1.98;1.08;;;15.30;99.90;;;;;;5042132;28;20036;-61
2023/05/01 00:10:19;;;;;;;1.75;0.90;;;15.30;99.90;;;;;;5039477;28;20029;-60
2023/05/01 00:12:46;;;;;;;1.77;0.90;;;15.40;99.90;;;;;;5040183;28;20031;-60
2023/05/01 00:15:13;;;;;;;1.60;0.82;;;15.50;99.90;;;;;;5040684;28;20029;-59
2023/05/01 00:17:41;;;;;;;0.82;0.65;;;15.60;99.90;;;;;;5037656;28;20083;-59
2023/05/01 00:20:09;;;;;;;1.50;0.65;;;15.70;99.90;;;;;;5041069;28;20036;-59
2023/05/01 00:22:37;;;;;;;1.10;0.52;;;15.80;99.90;;;;;;5048297;28;20029;-59
2023/05/01 00:25:04;;;;;;;0.52;0.40;;;15.80;99.90;;;;;;5051881;28;20029;-59
2023/05/01 00:27:32;;;;;;;1.38;0.60;;;15.90;99.90;;;;;;5037286;28;20029;-60
2023/05/01 00:29:59;;;;;;;1.65;0.60;;;16.00;99.90;;;;;;5030277;28;20052;-59
2023/05/01 00:32:27;;;;;;;0.70;0.50;;;16.10;99.90;;;;;;5048680;28;20470;-60
2023/05/01 00:34:56;;;;;;;0.50;0.35;;;16.30;99.90;;;;;;5027061;28;20052;-59
2023/05/01 00:37:24;;;;;;;0.85;0.50;;;16.60;99.90;;;;;;5035513;28;20083;-59
2023/05/01 00:39:51;;;;;;;0.43;0.40;;;16.70;99.90;;;;;;5039789;28;20445;-60
2023/05/01 00:42:19;;;;;;;0.73;0.30;;;16.80;99.90;;;;;;5034235;28;20103;-59
2023/05/01 00:44:46;;;;;;;0.60;0.40;;;16.90;99.90;;;;;;5050086;28;20028;-59
2023/05/01 00:47:14;;;;;;;0.73;0.30;;;17.00;99.90;;;;;;5035005;28;20048;-59
2023/05/01 00:49:43;;;;;;;0.75;0.30;;;17.10;99.90;;;;;;5037600;28;20029;-59
2023/05/01 00:52:10;;;;;;;0.50;0.30;;;17.10;99.90;;;;;;5022467;28;20025;-59
2023/05/01 00:54:38;;;;;;;0.50;0.50;;;17.20;99.90;;;;;;5048590;28;20025;-61
2023/05/01 00:57:08;;;;;;;2.42;0.40;;;17.30;99.90;;;;;;5043497;28;20798;-59
2023/05/01 00:59:36;;;;;;;0.60;0.50;;;17.20;99.90;;;;;;5047305;28;20021;-59
2023/05/01 01:02:03;;;;;;;1.33;0.47;;;17.20;99.90;;;;;;5041589;28;20031;-59
2023/05/01 01:04:32;;;;;;;0.50;0.30;;;17.20;99.90;;;;;;5040569;28;20021;-60
2023/05/01 01:07:42;;;;;;;0.60;0.40;;;17.30;99.90;;;;;;5025565;28;20032;-59
2023/05/01 01:10:17;;;;;;;0.30;0.30;;;17.50;99.90;;;;;;4964540;28;20408;-59
2023/05/01 01:12:52;;;;;;;0.20;0.20;;;17.70;99.90;;;;;;5026146;28;20410;-60
2023/05/01 01:15:27;;;;;;;0.52;0.30;;;17.80;99.90;;;;;;5041857;28;20421;-62
2023/05/01 01:18:17;;;;;;;;;;;17.90;99.90;;;;;;5041736;28;20048;-63
2023/05/01 01:21:18;;;;;;;1.20;0.52;;;18.00;99.90;;;;;;5043828;28;19916;-62
2023/05/01 01:24:29;;;;;;;0.28;0.20;;;18.10;99.90;;;;;;5034140;28;20497;-63
2023/05/01 01:27:17;;;;;;;0.93;0.52;;;18.20;99.90;;;;;;4991836;28;20041;-61
2023/05/01 01:30:14;;;;;;;1.48;0.40;;;18.20;99.90;;;;;;5045442;28;20079;-64
2023/05/01 01:32:48;;;;;;;0.20;0.20;;;18.20;99.90;;;;;;5003911;28;20030;-63
2023/05/01 01:35:26;;;;;;;0.57;0.40;;;18.20;99.90;;;;;;5038388;28;20157;-63
2023/05/01 01:38:18;;;;;;;0.40;0.30;;;18.30;99.90;;;;;;5032775;28;20045;-63
2023/05/01 01:41:08;;;;;;;0.82;0.38;;;18.60;99.90;;;;;;5055793;28;20027;-63
2023/05/01 01:43:42;;;;;;;0.90;0.40;;;18.80;99.90;;;;;;5035855;28;20029;-63
2023/05/01 01:46:11;;;;;;;1.38;0.40;;;18.90;99.90;;;;;;5038283;28;20018;-63
2023/05/01 01:48:45;;;;;;;3.58;0.50;;;18.90;99.90;;;;;;5014566;28;20045;-64
2023/05/01 01:51:17;;;;;;;0.28;0.22;;;19.00;99.90;;;;;;5039977;28;20063;-63
2023/05/01 01:53:50;;;;;;;3.03;0.50;;;19.00;99.90;;;;;;5035633;28;20029;-63
2023/05/01 01:56:19;;;;;;;1.27;0.65;;;19.00;99.90;;;;;;5016224;28;20025;-63
2023/05/01 01:58:49;;;;;;;0.50;0.40;;;19.10;99.90;;;;;;5041178;28;20032;-63
2023/05/01 02:01:18;;;;;;;0.80;0.40;;;19.10;99.90;;;;;;5031803;28;20033;-63
2023/05/01 02:03:46;;;;;;;0.20;0.20;;;19.00;99.90;;;;;;5040493;28;20084;-63
2023/05/01 02:06:15;;;;;;;0.82;0.35;;;19.00;99.90;;;;;;5042356;28;20496;-63
2023/05/01 02:08:43;;;;;;;1.35;0.50;;;19.00;99.90;;;;;;5044161;28;20024;-63
2023/05/01 02:11:16;;;;;;;1.33;0.50;;;18.90;99.90;;;;;;5034563;28;20025;-62
2023/05/01 02:13:45;;;;;;;0.50;0.40;;;18.90;99.90;;;;;;5044526;28;20029;-63
2023/05/01 02:16:13;;;;;;;2.92;1.40;;;18.80;99.90;;;;;;5030697;28;20040;-63
2023/05/01 02:18:43;;;;;;;2.22;0.40;;;18.80;99.90;;;;;;5045475;28;20040;-63
2023/05/01 02:21:12;;;;;;;3.63;0.80;;;18.80;99.90;;;;;;5042394;28;20021;-63
2023/05/01 02:23:40;;;;;;;1.13;0.40;;;18.90;99.90;;;;;;5034295;28;20032;-63
2023/05/01 02:26:11;;;;;;;2.03;0.60;;;19.00;99.90;;;;;;5041219;28;20017;-63
2023/05/01 02:28:40;;;;;;;0.70;0.40;;;19.00;99.90;;;;;;5044046;28;20025;-65
2023/05/01 02:31:11;;;;;;;3.47;0.55;;;19.20;99.90;;;;;;5042218;28;20036;-63
2023/05/01 02:33:38;;;;;;;0.57;0.30;;;19.40;97.20;;;;;;5043782;28;20025;-64
2023/05/01 02:36:07;;;;;;;0.63;0.30;;;19.40;95.60;;;;;;5043006;28;20017;-63
2023/05/01 02:38:34;;;;;;;0.70;0.40;;;19.40;95.00;;;;;;5047196;28;20159;-64
2023/05/01 02:41:03;;;;;;;0.30;0.20;;;19.50;97.80;;;;;;5015578;28;20079;-64
2023/05/01 02:43:32;;;;;;;4.57;0.45;;;19.60;97.90;;;;;;5033793;28;20021;-64
2023/05/01 02:46:01;;;;;;;1.38;0.43;;;19.80;97.30;;;;;;5040228;28;20099;-64
2023/05/01 02:48:30;;;;;;;1.15;0.60;;;19.80;95.90;;;;;;5046033;28;20068;-64
2023/05/01 02:51:00;;;;;;;1.10;0.50;;;19.80;97.00;;;;;;5042617;28;20025;-64
2023/05/01 02:53:27;;;;;;;2.22;0.43;;;19.90;95.70;;;;;;5043598;28;20025;-64
2023/05/01 02:55:55;;;;;;;3.70;0.50;;;19.90;97.20;;;;;;5036641;28;20462;-64
2023/05/01 02:58:23;;;;;;;0.85;0.20;;;20.10;96.40;;;;;;5039926;28;20399;-63
2023/05/01 03:00:50;;;;;;;3.25;0.50;;;20.20;96.10;;;;;;5018143;28;20025;-64
2023/05/01 03:03:21;;;;;;;0.43;0.30;;;20.30;94.00;;;;;;5042616;28;20029;-64
2023/05/01 03:05:48;;;;;;;1.23;0.35;;;20.50;95.50;;;;;;5015322;28;20021;-64
2023/05/01 03:08:16;;;;;;;0.57;0.40;;;20.60;95.60;;;;;;5035916;28;20140;-64
2023/05/01 03:10:43;;;;;;;0.50;0.30;;;20.80;95.60;;;;;;5038126;28;20493;-65
2023/05/01 03:13:11;;;;;;;0.77;0.35;;;20.90;93.80;;;;;;5036777;28;20030;-66
2023/05/01 03:15:39;;;;;;;0.57;0.30;;;20.80;94.40;;;;;;5044372;28;20505;-66
2023/05/01 03:18:06;;;;;;;0.17;0.17;;;20.70;93.30;;;;;;5045313;28;20127;-67
2023/05/01 03:20:36;;;;;;;0.77;0.25;;;20.50;93.60;;;;;;5029069;28;20025;-65
2023/05/01 03:23:05;;;;;;;0.15;0.15;;;20.20;92.80;;;;;;5040374;28;20028;-65
2023/05/01 03:25:32;;;;;;;0.70;0.30;;;20.10;93.60;;;;;;5037533;28;20021;-65
2023/05/01 03:28:00;;;;;;;0.30;0.28;;;20.20;93.40;;;;;;5020831;28;20029;-65
2023/05/01 03:30:27;;;;;;;2.28;0.40;;;20.30;91.90;;;;;;5034585;28;20017;-65
2023/05/01 03:32:55;;;;;;;0.55;0.30;;;20.40;90.40;;;;;;5038511;28;20108;-64
2023/05/01 03:35:22;;;;;;;0.20;0.20;;;20.40;87.00;;;;;;5041860;28;20096;-65
2023/05/01 03:37:50;;;;;;;0.25;0.10;;;20.40;91.30;;;;;;5017343;28;20052;-62
2023/05/01 03:40:18;;;;;;;0.30;0.20;;;20.50;90.00;;;;;;5035797;28;20021;-63
2023/05/01 03:42:45;;;;;;;0.17;0.10;;;20.40;85.90;;;;;;5038939;28;20492;-67
2023/05/01 03:45:13;;;;;;;0.20;0.20;;;20.30;88.00;;;;;;5039283;28;20017;-65
2023/05/01 03:47:40;;;;;;;0.10;0.10;;;20.30;87.30;;;;;;5040150;28;20098;-65
2023/05/01 03:50:08;;;;;;;0.17;0.17;;;20.40;86.60;;;;;;5036661;28;20022;-65
2023/05/01 03:52:36;;;;;;;0.40;0.22;;;20.40;87.50;;;;;;5037748;28;20131;-64
2023/05/01 03:55:04;;;;;;;0.20;0.20;;;20.30;84.00;;;;;;5040520;28;20022;-64
2023/05/01 03:57:31;;;;;;;0.30;0.20;;;20.40;84.70;;;;;;5041564;28;20068;-66
2023/05/01 03:59:59;;;;;;;0.88;0.30;;;20.60;85.60;;;;;;5038348;28;20055;-64
2023/05/01 04:02:26;;;;;;;0.30;0.22;;;20.70;81.80;;;;;;5039147;28;20036;-65
2023/05/01 04:04:54;;;;;;;0.38;0.20;;;20.70;86.40;;;;;;5037154;28;20482;-65
2023/05/01 04:07:21;;;;;;;0.57;0.30;;;20.90;85.30;;;;;;5036666;28;20044;-64
2023/05/01 04:09:49;;;;;;;3.60;0.20;;;21.10;80.60;;;;;;5021135;28;20551;-64
2023/05/01 04:12:16;;;;;;;1.60;0.30;;;21.00;71.40;;;;;;5021972;28;20482;-65
2023/05/01 04:14:44;;;;;;;1.85;0.30;;;21.00;71.90;;;;;;5046783;28;20032;-65
2023/05/01 04:17:12;;;;;;;0.22;0.20;;;20.80;77.30;;;;;;5039712;28;20079;-65
2023/05/01 04:19:40;;;;;;;1.55;0.30;;;20.80;76.50;;;;;;5039937;28;20022;-67
2023/05/01 04:22:07;;;;;;;0.65;0.30;;;20.80;78.00;;;;;;5043888;28;20032;-66
2023/05/01 04:24:37;;;;;;;0.50;0.30;;;20.80;78.20;;;;;;5040644;28;20131;-67
2023/05/01 04:27:05;;;;;;;0.70;0.10;;;20.80;76.10;;;;;;5021556;28;20086;-67
2023/05/01 04:29:32;;;;;;;0.20;0.20;;;20.80;81.70;;;;;;5038332;28;20025;-65
2023/05/01 04:32:00;;;;;;;4.03;0.50;;;20.80;83.30;;;;;;5022022;28;20016;-64
2023/05/01 04:34:28;;;;;;;5.15;2.00;;;20.90;81.10;;;;;;5039243;28;20029;-65
2023/05/01 04:36:58;;;;;;;6.25;0.73;;;20.90;80.80;;;;;;5037898;28;20033;-65
2023/05/01 04:39:26;;;;;;;0.20;0.20;;;20.80;81.80;;;;;;5024745;28;20537;-64
2023/05/01 04:41:53;;;;;;;3.80;0.25;;;20.40;79.70;;;;;;5040869;28;20029;-65
2023/05/01 04:44:20;;;;;;;0.30;0.30;;;20.30;79.80;;;;;;5018797;28;20509;-65
2023/05/01 04:46:48;;;;;;;1.95;0.43;;;20.20;77.00;;;;;;5017808;28;20051;-65
2023/05/01 04:49:16;;;;;;;1.75;0.25;;;20.10;76.30;;;;;;5041075;28;20053;-64
2023/05/01 04:51:44;;;;;;;0.68;0.30;;;20.00;81.40;;;;;;5036334;28;20478;-64
2023/05/01 04:54:14;;;;;;;0.35;0.25;;;19.90;80.00;;;;;;5040573;28;20025;-65
2023/05/01 04:56:42;;;;;;;1.25;0.40;;;19.90;77.30;;;;;;5038200;28;20376;-65
2023/05/01 04:59:09;;;;;;;0.43;0.25;;;19.90;79.70;;;;;;5018795;28;20203;-65
2023/05/01 05:01:37;;;;;;;0.90;0.30;;;19.80;83.80;;;;;;5038148;28;20493;-65
2023/05/01 05:04:04;;;;;;;0.40;0.30;;;19.70;82.30;;;;;;5042636;28;20719;-67
2023/05/01 05:06:32;;;;;;;0.47;0.28;;;19.50;84.80;;;;;;5038161;28;20072;-66
2023/05/01 05:08:59;;;;;;;0.10;0.10;;;19.40;87.50;;;;;;5037063;28;20361;-66
2023/05/01 05:11:27;;;;;;;2.63;0.45;;;19.40;88.60;;;;;;5037202;28;20534;-65
2023/05/01 05:13:54;;;;;;;0.57;0.45;;;19.40;86.10;;;;;;5020066;28;20762;-65
2023/05/01 05:16:21;;;;;;;0.28;0.22;;;19.40;87.20;;;;;;5036816;28;20104;-66
2023/05/01 05:18:49;;;;;;;2.17;0.30;;;19.30;88.40;;;;;;5038493;28;20025;-66
2023/05/01 05:21:16;;;;;;;0.82;0.20;;;19.00;89.90;;;;;;5036500;28;20096;-65
2023/05/01 05:23:44;;;;;;;1.08;0.25;;;19.00;90.60;;;;;;5037023;28;20450;-64
2023/05/01 05:26:11;;;;;;;1.05;0.30;;;18.90;92.80;;;;;;5023568;28;20056;-65
2023/05/01 05:28:39;;;;;;;0.90;0.30;;;18.70;93.10;;;;;;5019654;28;20025;-65
2023/05/01 05:31:07;;;;;;;0.65;0.30;;;18.60;93.70;;;;;;5038655;28;20021;-65
2023/05/01 05:33:34;;;;;;;2.65;0.38;;;18.50;93.40;;;;;;5039086;28;20269;-65
2023/05/01 05:36:05;;;;;;;0.65;0.22;;;18.40;94.30;;;;;;5038131;28;20444;-65
2023/05/01 05:38:32;;;;;;;0.40;0.25;;;18.30;95.00;;;;;;5040231;28;20093;-65
2023/05/01 05:41:00;;;;;;;2.33;0.50;;;18.30;95.00;;;;;;5018766;28;20026;-65
2023/05/01 05:43:28;;;;;;;0.28;0.20;;;18.20;94.70;;;;;;5037017;28;20055;-65
2023/05/01 05:46:02;;;;;;;0.43;0.22;;;18.10;94.90;;;;;;5040964;28;20100;-65
2023/05/01 05:48:29;;;;;;;2.00;0.52;;;18.00;95.30;;;;;;5037289;28;20072;-65
2023/05/01 05:50:57;;;;;;;0.47;0.35;;;18.00;95.10;;;;;;5020856;28;20409;-66
2023/05/01 05:53:24;;;;;;;4.97;0.70;;;17.90;95.70;;;;;;5019259;28;20574;-66
2023/05/01 05:55:52;;;;;;;5.22;0.38;;;17.80;96.60;;;;;;5038604;28;20033;-66
2023/05/01 05:58:20;;;;;;;3.45;0.65;;;17.70;97.00;;;;;;5034292;28;20402;-65
2023/05/01 06:00:52;;;;;;;4.07;0.30;;;17.70;96.90;;;;;;5041923;28;20025;-66
2023/05/01 06:03:19;;;;;;;1.65;0.40;;;17.70;97.10;;;;;;5038543;28;20541;-66
2023/05/01 06:05:47;;;;;;;7.03;0.65;;;17.60;96.70;;;;;;5019012;28;20024;-66
2023/05/01 06:08:14;;;;;;;8.68;1.85;;;17.50;96.30;;;;;;5038604;28;20029;-67
2023/05/01 06:10:45;;;;;;;0.57;0.32;;;17.50;95.10;;;;;;5022367;28;20128;-66
2023/05/01 06:13:12;;;;;;;7.20;0.60;;;17.40;96.10;;;;;;5020267;28;20583;-66
2023/05/01 06:15:41;;;;;;;1.27;0.77;;;17.30;95.40;;;;;;5037052;28;20021;-66
2023/05/01 06:18:08;;;;;;;2.50;0.50;;;17.20;96.30;;;;;;5042806;28;20406;-67
2023/05/01 06:20:35;;;;;;;0.88;0.40;;;17.10;96.20;;;;;;5018882;28;20104;-66
2023/05/01 06:23:03;;;;;;;0.77;0.40;;;17.10;96.80;;;;;;5044070;28;20079;-66
2023/05/01 06:25:31;;;;;;;0.68;0.30;;;17.00;97.10;;;;;;5052742;28;20048;-65
2023/05/01 06:27:58;;;;;;;1.00;0.52;;;16.90;97.00;;;;;;5045781;28;20141;-66
2023/05/01 06:30:25;;;;;;;0.57;0.30;;;16.90;97.20;;;;;;5035087;28;20413;-66
2023/05/01 06:32:53;;;;;;;1.48;0.98;;;16.90;97.20;;;;;;5038024;28;20031;-66
2023/05/01 06:35:20;;;;;;;0.88;0.47;;;16.80;98.40;;;;;;5043002;28;20104;-66
2023/05/01 06:37:48;;;;;;;3.92;0.68;;;16.80;98.20;;;;;;5039669;28;20037;-66
2023/05/01 06:40:15;;;;;;;3.58;0.65;;;16.80;98.50;;;;;;5047635;28;20078;-66
2023/05/01 06:42:43;;;;;;;1.02;0.30;;;16.80;99.00;;;;;;5041320;28;20026;-66
2023/05/01 06:45:10;;;;;;;6.03;1.10;;;16.70;98.60;;;;;;5041614;28;20048;-66
2023/05/01 06:47:38;;;;;;;2.08;0.43;;;16.70;98.70;;;;;;5015780;28;20132;-66
2023/05/01 06:50:06;;;;;;;5.72;1.33;;;16.70;99.40;;;;;;5045979;28;20022;-66
2023/05/01 06:52:34;;;;;;;6.63;0.85;;;16.60;99.30;;;;;;5044572;28;20021;-66
2023/05/01 06:55:02;;;;;;;1.85;0.57;;;16.60;99.80;;;;;;5040337;28;20032;-66
2023/05/01 06:57:30;;;;;;;1.27;0.40;;;16.50;99.80;;;;;;5036913;28;20389;-66
2023/05/01 06:59:57;;;;;;;1.95;0.30;;;16.50;99.90;;;;;;5025632;28;20373;-66
2023/05/01 07:02:25;;;;;;;1.52;0.40;;;16.50;99.90;;;;;;5017777;28;20025;-66
2023/05/01 07:04:53;;;;;;;1.52;0.40;;;16.40;99.90;;;;;;5033226;28;20462;-65
2023/05/01 07:07:21;;;;;;;1.40;0.43;;;16.30;99.90;;;;;;5041942;28;20108;-65
2023/05/01 07:09:48;;;;;;;1.50;0.63;;;16.20;99.90;;;;;;5027014;28;20037;-67
2023/05/01 07:12:16;;;;;;;1.83;1.48;;;16.10;99.90;;;;;;5029610;28;20426;-67
2023/05/01 07:14:43;;;;;;;0.65;0.30;;;16.00;99.90;;;;;;5036148;28;20124;-67
2023/05/01 07:17:11;;;;;;;0.57;0.30;;;15.90;99.90;;;;;;5034164;28;20037;-67
2023/05/01 07:19:38;;;;;;;0.65;0.38;;;15.80;99.90;;;;;;5037045;28;20067;-67
2023/05/01 07:22:06;;;;;;;0.10;0.10;;;15.70;99.90;;;;;;5038434;28;20021;-67
2023/05/01 07:24:33;;;;;;;0.77;0.30;;;15.60;99.90;;;;;;5035680;28;20025;-67
2023/05/01 07:27:00;;;;;;;2.42;0.30;;;15.60;99.90;;;;;;5039108;28;20041;-67
2023/05/01 07:29:28;;;;;;;3.30;0.32;;;15.50;99.90;;;;;;5039865;28;20052;-67
2023/05/01 07:31:56;;;;;;;0.45;0.30;;;15.40;99.90;;;;;;5037737;28;20637;-67
2023/05/01 07:34:23;;;;;;;2.00;0.30;;;15.30;99.90;;;;;;5036180;28;20033;-67
2023/05/01 07:36:51;;;;;;;5.05;0.63;;;15.10;99.90;;;;;;5039339;28;20251;-66
2023/05/01 07:39:18;;;;;;;1.55;0.60;;;15.00;99.90;;;;;;5035853;28;20075;-66
2023/05/01 07:41:46;;;;;;;3.53;0.50;;;14.90;99.90;;;;;;5023706;28;20036;-65
2023/05/01 07:44:14;;;;;;;2.80;0.47;;;14.70;99.90;;;;;;5045361;28;20044;-66
2023/05/01 07:46:42;;;;;;;6.40;0.85;;;14.60;99.90;;;;;;5043179;28;20040;-67
2023/05/01 07:49:09;;;;;;;4.10;0.63;;;14.40;99.90;;;;;;5024600;28;20040;-66
2023/05/01 07:51:36;;;;;;;1.98;0.40;;;14.20;99.90;;;;;;5027084;28;20017;-66
2023/05/01 07:54:04;;;;;;;2.33;0.50;;;14.10;99.90;;;;;;5036965;28;20379;-66
2023/05/01 07:56:32;;;;;;;3.53;0.73;;;13.90;99.90;;;;;;5043163;28;20392;-66
2023/05/01 07:58:59;;;;;;;1.48;0.47;;;13.80;99.90;;;;;;5038411;28;20090;-67
2023/05/01 08:01:27;;;;;;;2.22;0.50;;;13.60;99.90;;;;;;5044079;28;20478;-66
2023/05/01 08:03:54;;;;;;;1.90;0.60;;;13.50;99.90;;;;;;5020926;28;20483;-66
2023/05/01 08:06:22;;;;;;;2.15;0.50;;;13.40;99.90;;;;;;5017343;28;20052;-67
2023/05/01 08:08:49;;;;;;;3.13;0.70;;;13.30;99.90;;;;;;5017838;28;20051;-66
2023/05/01 08:11:17;;;;;;;0.73;0.50;;;13.30;99.90;;;;;;5041122;28;20028;-65
2023/05/01 08:13:45;;;;;;;3.30;0.70;;;13.30;99.90;;;;;;5043937;28;20497;-60
2023/05/01 08:16:12;;;;;;;11.57;1.15;;;13.20;99.90;;;;;;5044616;28;20426;-60
2023/05/01 08:18:39;;;;;;;6.35;0.75;;;13.10;99.90;;;;;;5037835;28;20125;-64
2023/05/01 08:21:07;;;;;;;12.65;1.13;;;13.10;99.90;;;;;;5038137;28;20074;-65
2023/05/01 08:23:34;;;;;;;3.95;0.80;;;13.00;99.90;;;;;;5036344;28;20425;-65
2023/05/01 08:26:02;;;;;;;0.40;0.30;;;13.00;99.90;;;;;;5047823;28;20029;-65
2023/05/01 08:28:29;;;;;;;5.45;1.10;;;13.00;99.90;;;;;;5037648;28;20078;-65
2023/05/01 08:30:57;;;;;;;5.18;0.70;;;13.00;99.90;;;;;;5033324;28;20025;-65
2023/05/01 08:33:24;;;;;;;3.63;0.57;;;12.90;99.90;;;;;;5020250;28;20029;-64
2023/05/01 08:35:52;;;;;;;4.40;1.25;;;12.90;99.90;;;;;;5038236;28;20029;-65
2023/05/01 08:38:19;;;;;;;2.75;0.90;;;12.90;99.90;;;;;;5027202;28;20033;-65
2023/05/01 08:40:55;;;;;;;3.20;0.60;;;12.80;99.90;;;;;;5040289;28;20021;-65
2023/05/01 08:43:24;;;;;;;1.15;0.40;;;12.70;99.90;;;;;;5032363;28;20390;-65
2023/05/01 08:45:55;;;;;;;1.85;0.60;;;12.70;99.90;;;;;;5026719;28;20028;-65
2023/05/01 08:48:25;;;;;;;2.50;0.70;;;12.60;99.90;;;;;;5033044;28;20043;-64
2023/05/01 08:50:59;;;;;;;2.70;0.77;;;12.60;99.90;;;;;;5022268;28;20055;-65
2023/05/01 08:53:28;;;;;;;2.22;0.80;;;12.50;99.90;;;;;;5044442;28;20035;-65
2023/05/01 08:55:59;;;;;;;2.97;0.60;;;12.30;99.90;;;;;;5034567;28;20099;-64
2023/05/01 08:58:28;;;;;;;1.10;0.50;;;12.30;99.90;;;;;;5044614;28;20092;-65
2023/05/01 09:00:57;;;;;;;0.80;0.50;;;12.20;99.90;;;;;;5041787;28;20032;-64
2023/05/01 09:03:27;;;;;;;1.25;0.60;;;12.10;99.90;;;;;;5037093;28;20152;-64
2023/05/01 09:05:55;;;;;;;1.13;0.60;;;12.00;99.90;;;;;;5044156;28;20029;-64
2023/05/01 09:08:23;;;;;;;1.10;0.80;;;11.80;99.90;;;;;;5049345;28;20110;-64
2023/05/01 09:10:51;;;;;;;1.77;0.80;;;11.70;99.90;;;;;;5041604;28;20010;-64
2023/05/01 09:13:19;;;;;;;3.33;1.17;;;11.60;99.90;;;;;;5025640;28;20076;-64
2023/05/01 09:15:47;;;;;;;7.43;1.30;;;11.50;99.90;;;;;;5033966;28;20029;-65
2023/05/01 09:18:14;;;;;;;3.03;0.93;;;11.40;99.90;;;;;;5046267;28;20367;-64
2023/05/01 09:20:42;;;;;;;2.33;1.30;;;11.40;99.90;;;;;;5038396;28;20041;-65
2023/05/01 09:23:11;;;;;;;3.83;1.20;;;11.30;99.90;;;;;;5038791;28;20036;-65
2023/05/01 09:25:38;;;;;;;2.45;1.00;;;11.30;99.90;;;;;;5034418;28;20029;-65
2023/05/01 09:28:06;;;;;;;2.33;0.98;;;11.20;99.90;;;;;;5047210;28;20056;-65
2023/05/01 09:30:35;;;;;;;1.98;0.80;;;11.20;99.90;;;;;;5037376;28;20563;-65
2023/05/01 09:33:11;;;;;;;1.58;0.70;;;11.10;99.90;;;;;;5039597;28;20052;-65
2023/05/01 09:35:53;;;;;;;1.20;0.80;;;11.10;99.90;;;;;;5045966;28;20104;-65
2023/05/01 09:38:25;;;;;;;2.75;0.70;;;11.00;99.90;;;;;;5017609;28;20032;-65
2023/05/01 09:40:55;;;;;;;2.30;0.60;;;11.00;99.90;;;;;;5040679;28;20052;-65
2023/05/01 09:43:30;;;;;;;1.25;0.80;;;10.90;99.90;;;;;;5030544;28;20394;-64
2023/05/01 09:46:08;;;;;;;1.80;0.70;;;10.90;99.90;;;;;;5032669;28;20022;-64
2023/05/01 09:48:37;;;;;;;0.90;0.45;;;10.90;99.90;;;;;;5043141;28;20052;-64
2023/05/01 09:51:24;;;;;;;0.80;0.60;;;10.80;99.90;;;;;;5036502;28;20032;-65
2023/05/01 09:53:52;;;;;;;1.75;0.88;;;10.70;99.90;;;;;;5048920;28;20028;-65
2023/05/01 09:56:23;;;;;;;1.70;0.90;;;10.70;99.90;;;;;;5034869;28;20123;-64
2023/05/01 09:58:52;;;;;;;1.35;0.65;;;10.60;99.90;;;;;;5047554;28;20505;-64
2023/05/01 10:01:38;;;;;;;2.00;0.98;;;10.50;99.90;;;;;;5036722;28;20028;-65
2023/05/01 10:04:07;;;;;;;1.42;0.85;;;10.50;99.90;;;;;;5029156;28;20022;-64
2023/05/01 10:06:35;;;;;;;1.60;0.80;;;10.40;99.90;;;;;;5033292;28;20029;-64
2023/05/01 10:09:03;;;;;;;4.13;1.00;;;10.30;99.90;;;;;;5040332;28;20056;-65
2023/05/01 10:11:31;;;;;;;2.05;1.05;;;10.20;99.90;;;;;;5017421;28;20494;-64
2023/05/01 10:14:11;;;;;;;1.80;0.80;;;10.10;99.90;;;;;;5028153;28;20044;-64
2023/05/01 10:16:39;;;;;;;2.53;0.90;;;10.10;99.90;;;;;;5019657;28;20508;-64
2023/05/01 10:19:07;;;;;;;1.95;0.98;;;10.10;99.90;;;;;;5020362;28;20037;-65
2023/05/01 10:21:35;;;;;;;2.25;0.85;;;10.00;99.90;;;;;;5044907;28;20032;-64
2023/05/01 10:24:04;;;;;;;2.22;0.98;;;9.90;99.90;;;;;;5032966;28;20021;-64
2023/05/01 10:26:35;;;;;;;2.85;0.88;;;9.90;99.90;;;;;;5043238;28;20378;-64
2023/05/01 10:29:03;;;;;;;1.67;0.98;;;9.80;99.90;;;;;;5039433;28;20025;-65
2023/05/01 10:31:31;;;;;;;2.45;0.90;;;9.80;99.90;;;;;;5044191;28;20091;-65
2023/05/01 10:34:00;;;;;;;2.65;1.00;;;9.70;99.90;;;;;;5032939;28;20029;-64
2023/05/01 10:36:44;;;;;;;2.13;1.08;;;9.70;99.90;;;;;;5025047;28;20033;-64
2023/05/01 10:39:31;;;;;;;3.05;1.00;;;9.70;99.90;;;;;;5044233;28;20443;-64
2023/05/01 10:41:58;;;;;;;3.08;1.10;;;9.70;99.90;;;;;;5045723;28;20029;-64
2023/05/01 10:44:26;;;;;;;1.67;1.10;;;9.60;99.90;;;;;;5036617;28;20013;-64
2023/05/01 10:46:54;;;;;;;1.67;0.93;;;9.50;99.90;;;;;;5021464;28;20482;-65
2023/05/01 10:49:22;;;;;;;4.93;1.00;;;9.50;99.90;;;;;;5031317;28;20034;-65
2023/05/01 10:52:03;;;;;;;4.45;1.25;;;9.40;99.90;;;;;;5045312;28;20036;-65
2023/05/01 10:54:31;;;;;;;1.65;0.80;;;9.40;99.90;;;;;;5035805;28;20052;-65
2023/05/01 10:57:03;;;;;;;2.33;1.00;;;9.30;99.90;;;;;;5020701;28;20692;-64
2023/05/01 11:00:04;;;;;;;1.77;0.93;;;9.20;99.90;;;;;;5043974;28;20470;-65
2023/05/01 11:02:31;;;;;;;1.55;0.85;;;9.10;99.90;;;;;;5017242;28;20024;-64
2023/05/01 11:04:58;;;;;;;2.38;1.00;;;9.10;99.90;;;;;;5046175;28;20646;-64
2023/05/01 11:07:27;;;;;;;4.65;1.20;;;9.00;99.90;;;;;;5016944;28;20079;-64
2023/05/01 11:09:58;;;;;;;4.03;1.13;;;8.90;99.90;;;;;;5045230;28;20056;-64
2023/05/01 11:12:47;;;;;;;4.80;1.77;;;8.80;99.90;;;;;;5034610;28;20078;-65
2023/05/01 11:15:27;;;;;;;3.33;1.52;;;8.80;99.90;;;;;;5036624;28;20478;-65
2023/05/01 11:17:54;;;;;;;2.72;1.50;;;8.70;99.90;;;;;;5045062;28;20041;-64
2023/05/01 11:20:24;;;;;;;3.17;1.83;;;8.60;99.90;;;;;;5034181;28;20017;-64
2023/05/01 11:22:53;;;;;;;8.02;3.17;;;8.60;99.90;;;;;;5042047;28;20036;-65
2023/05/01 11:25:23;;;;;;;5.60;1.90;;;8.60;99.90;;;;;;5017680;28;20029;-64
2023/05/01 11:27:52;;;;;;;5.45;1.80;;;8.50;99.90;;;;;;5027290;28;20029;-64
2023/05/01 11:30:20;;;;;;;3.92;2.17;;;8.50;99.90;;;;;;5015962;28;20023;-64
2023/05/01 11:32:49;;;;;;;4.00;1.95;;;8.50;99.90;;;;;;5039858;28;20021;-65
2023/05/01 11:35:27;;;;;;;6.20;2.03;;;8.50;99.90;;;;;;5041569;28;20029;-64
2023/05/01 11:37:55;;;;;;;4.43;2.15;;;8.50;99.90;;;;;;5030970;28;20044;-64
2023/05/01 11:40:27;;;;;;;5.13;2.30;;;8.50;99.90;;;;;;5025319;28;20406;-64
2023/05/01 11:43:05;;;;;;;4.18;1.67;;;8.50;99.90;;;;;;5038260;28;20444;-65
2023/05/01 11:45:34;;;;;;;5.20;1.58;;;8.50;99.90;;;;;;5033713;28;20024;-64
2023/05/01 11:48:02;;;;;;;3.97;1.58;;;8.60;99.90;;;;;;5023435;28;20073;-64
2023/05/01 11:50:37;;;;;;;4.50;2.40;;;8.50;99.90;;;;;;5013638;28;20105;-65
2023/05/01 11:53:10;;;;;;;;;;;8.60;99.90;;;;;;5018635;28;20029;-65
2023/05/01 11:55:38;;;;;;;4.00;2.53;;;8.70;99.90;;;;;;5023421;28;19913;-64
2023/05/01 11:58:06;;;;;;;5.10;2.28;;;8.70;99.90;;;;;;5012271;28;20562;-64
2023/05/01 12:00:43;;;;;;;5.20;3.00;;;8.70;99.90;;;;;;5022095;28;20120;-65
2023/05/01 12:03:13;;;;;;;5.57;3.08;;;8.70;99.90;;;;;;5020373;28;20021;-65
2023/05/01 12:05:44;;;;;;;4.35;2.25;;;8.60;99.90;;;;;;5026946;28;20029;-65
2023/05/01 12:08:22;;;;;;;5.72;2.47;;;8.60;99.90;;;;;;5017054;28;20109;-64
2023/05/01 12:10:57;;;;;;;6.40;2.70;;;8.60;99.90;;;;;;5017921;28;20479;-65
2023/05/01 12:13:25;;;;;;;7.20;2.63;;;8.50;99.90;;;;;;5015844;28;20030;-64
2023/05/01 12:15:54;;;;;;;6.03;3.03;;;8.40;99.90;;;;;;5024836;28;20062;-60
2023/05/01 12:18:22;;;;;;;5.93;2.55;;;8.40;99.90;;;;;;5024741;28;20041;-60
2023/05/01 12:20:53;;;;;;;6.13;2.58;;;8.30;99.90;;;;;;5026050;28;20021;-61
2023/05/01 12:23:31;;;;;;;5.53;2.78;;;8.30;99.90;;;;;;5025757;28;20397;-60
2023/05/01 12:26:02;;;;;;;3.75;2.60;;;8.20;99.90;;;;;;5026488;28;20032;-60
2023/05/01 12:28:30;;;;;;;3.58;2.28;;;8.20;99.90;;;;;;5017242;28;20029;-60
2023/05/01 12:31:02;;;;;;;6.35;3.40;;;8.20;99.90;;;;;;5024220;28;20034;-60
2023/05/01 12:33:30;;;;;;;3.72;1.92;;;8.20;99.90;;;;;;5023308;28;20025;-60
2023/05/01 12:36:10;;;;;;;3.95;2.38;;;8.10;99.90;;;;;;5026491;28;20092;-60
2023/05/01 12:38:38;;;;;;;4.70;1.98;;;8.10;99.90;;;;;;5022278;28;20595;-60
2023/05/01 12:41:08;;;;;;;3.15;1.70;;;8.10;99.90;;;;;;5027067;28;20025;-60
2023/05/01 12:43:37;;;;;;;2.17;1.50;;;8.00;99.90;;;;;;5024385;28;20036;-60
2023/05/01 12:46:06;;;;;;;2.55;1.80;;;8.00;99.90;;;;;;5027284;28;20160;-61
2023/05/01 12:48:38;;;;;;;4.07;1.80;;;7.90;99.90;;;;;;5026627;28;20057;-59
2023/05/01 12:51:06;;;;;;;3.47;1.45;;;7.90;99.90;;;;;;5021556;28;20440;-60
2023/05/01 12:53:34;;;;;;;3.63;2.00;;;7.90;99.90;;;;;;5018313;28;20403;-58
2023/05/01 12:56:02;;;;;;;5.32;2.20;;;7.90;99.90;;;;;;5020013;28;20029;-60
2023/05/01 12:58:37;;;;;;;3.20;1.50;;;7.90;99.90;;;;;;5018051;28;20041;-60
2023/05/01 13:01:05;;;;;;;4.10;1.58;;;7.90;99.90;;;;;;5019384;28;20064;-60
2023/05/01 13:03:34;;;;;;;3.15;1.65;;;7.90;99.90;;;;;;5024403;28;20029;-61